createdAt,value
2019-01-14T00:01:12.776Z,9.53
2019-01-14T00:06:14.579Z,9.47
2019-01-14T00:11:16.315Z,9.53
2019-01-14T00:16:18.129Z,10.33
2019-01-14T00:21:19.907Z,9.40
2019-01-14T00:26:21.733Z,9.07
2019-01-14T00:31:23.427Z,6.27
2019-01-14T00:36:25.731Z,8.50
2019-01-14T00:41:27.497Z,9.27
2019-01-14T00:46:29.290Z,8.07
2019-01-14T00:51:30.976Z,8.13
2019-01-14T00:56:32.783Z,10.00
2019-01-14T01:01:34.572Z,9.03
2019-01-14T01:06:36.477Z,8.30
2019-01-14T01:11:38.274Z,7.33
2019-01-14T01:16:40.271Z,7.50
2019-01-14T01:21:42.058Z,8.07
2019-01-14T01:26:43.758Z,8.63
2019-01-14T01:31:45.560Z,7.10
2019-01-14T01:36:47.420Z,7.63
2019-01-14T01:41:49.137Z,7.40
2019-01-14T01:46:50.855Z,8.20
2019-01-14T01:51:52.720Z,9.77
2019-01-14T01:56:54.516Z,7.90
2019-01-14T02:01:56.412Z,6.97
2019-01-14T02:06:58.375Z,5.20
2019-01-14T02:12:00.159Z,7.00
2019-01-14T02:17:01.953Z,7.23
2019-01-14T02:22:03.960Z,5.40
2019-01-14T02:27:05.747Z,5.73
2019-01-14T02:32:07.557Z,6.83
2019-01-14T02:37:09.462Z,4.40
2019-01-14T02:42:11.147Z,6.17
2019-01-14T02:47:12.950Z,5.47
2019-01-14T02:52:14.746Z,4.13
2019-01-14T02:57:16.545Z,5.30
2019-01-14T03:02:18.348Z,4.37
2019-01-14T03:07:20.152Z,6.33
2019-01-14T03:12:22.156Z,4.37
2019-01-14T03:17:24.084Z,5.67
2019-01-14T03:22:25.857Z,7.03
2019-01-14T03:27:27.765Z,4.27
2019-01-14T03:32:29.567Z,6.57
2019-01-14T03:37:31.369Z,7.60
2019-01-14T03:42:33.273Z,9.30
2019-01-14T03:47:35.073Z,5.67
2019-01-14T03:52:36.875Z,7.27
2019-01-14T03:57:38.677Z,6.70
2019-01-14T04:02:40.477Z,7.43
2019-01-14T04:07:42.391Z,7.17
2019-01-14T04:12:44.142Z,6.47
2019-01-14T04:17:46.097Z,10.83
2019-01-14T04:22:47.792Z,8.00
2019-01-14T04:27:49.581Z,7.00
2019-01-14T04:32:51.270Z,5.93
2019-01-14T04:37:53.071Z,6.73
2019-01-14T04:42:54.871Z,9.17
2019-01-14T04:47:56.668Z,7.87
2019-01-14T04:52:58.477Z,3.67
2019-01-14T04:58:00.271Z,4.80
2019-01-14T05:03:02.052Z,3.83
2019-01-14T05:08:03.932Z,3.43
2019-01-14T05:13:06.136Z,2.33
2019-01-14T05:18:07.871Z,4.90
2019-01-14T05:23:09.643Z,3.90
2019-01-14T05:28:11.428Z,3.70
2019-01-14T05:33:13.411Z,2.53
2019-01-14T05:38:15.177Z,3.60
2019-01-14T05:43:16.926Z,3.60
2019-01-14T05:48:18.722Z,5.37
2019-01-14T05:53:20.813Z,4.83
2019-01-14T05:58:22.626Z,4.90
2019-01-14T06:03:24.426Z,5.37
2019-01-14T06:08:26.534Z,5.60
2019-01-14T06:13:28.296Z,5.00
2019-01-14T06:18:30.398Z,4.90
2019-01-14T06:23:33.615Z,6.00
2019-01-14T06:28:35.461Z,5.77
2019-01-14T06:33:37.311Z,4.03
2019-01-14T06:38:39.109Z,8.53
2019-01-14T06:43:40.890Z,5.63
2019-01-14T06:48:42.667Z,5.93
2019-01-14T06:53:44.523Z,4.70
2019-01-14T06:58:46.278Z,4.67
2019-01-14T07:03:48.064Z,4.60
2019-01-14T07:08:49.796Z,4.17
2019-01-14T07:13:51.482Z,4.80
2019-01-14T07:18:53.303Z,4.43
2019-01-14T07:23:54.989Z,5.83
2019-01-14T07:28:57.051Z,4.23
2019-01-14T07:33:58.839Z,5.90
2019-01-14T07:39:00.615Z,5.57
2019-01-14T07:44:02.314Z,5.03
2019-01-14T07:49:04.089Z,3.80
2019-01-14T07:54:05.775Z,5.30
2019-01-14T07:59:07.616Z,5.20
2019-01-14T08:04:09.389Z,3.67
2019-01-14T08:09:11.217Z,3.57
2019-01-14T08:14:14.214Z,2.73
2019-01-14T08:19:16.145Z,5.03
2019-01-14T08:24:17.845Z,5.37
2019-01-14T08:29:20.161Z,4.87
2019-01-14T08:34:21.956Z,4.37
2019-01-14T08:39:23.760Z,4.70
2019-01-14T08:44:27.316Z,4.60
2019-01-14T08:49:29.383Z,3.60
2019-01-14T08:54:38.990Z,5.03
2019-01-14T08:59:50.145Z,4.00
2019-01-14T09:04:51.925Z,3.80
2019-01-14T09:09:54.118Z,4.20
2019-01-14T09:14:55.893Z,2.80
2019-01-14T09:19:57.699Z,3.23
2019-01-14T09:24:59.381Z,2.80
2019-01-14T09:30:01.494Z,2.77
2019-01-14T09:35:04.005Z,3.10
2019-01-14T09:40:14.904Z,2.63
2019-01-14T09:45:16.713Z,3.27
2019-01-14T09:50:18.488Z,2.80
2019-01-14T09:55:20.171Z,3.07
2019-01-14T10:00:21.892Z,3.07
2019-01-14T10:05:23.650Z,3.27
2019-01-14T10:10:25.438Z,3.27
2019-01-14T10:15:28.080Z,3.93
2019-01-14T10:20:30.026Z,3.00
2019-01-14T10:25:32.620Z,2.80
2019-01-14T10:30:34.440Z,3.23
2019-01-14T10:35:36.126Z,4.00
2019-01-14T10:40:37.915Z,4.50
2019-01-14T10:45:39.599Z,4.13
2019-01-14T10:50:41.335Z,4.23
2019-01-14T10:55:43.107Z,2.50
2019-01-14T11:00:44.900Z,3.20
2019-01-14T11:05:46.798Z,3.60
2019-01-14T11:10:48.549Z,3.63
2019-01-14T11:15:50.297Z,3.43
2019-01-14T11:20:52.093Z,5.63
2019-01-14T11:25:53.893Z,3.67
2019-01-14T11:30:55.778Z,2.93
2019-01-14T11:35:57.538Z,5.00
2019-01-14T11:40:59.325Z,3.73
2019-01-14T11:46:01.128Z,4.40
2019-01-14T11:51:03.508Z,4.70
2019-01-14T11:56:05.266Z,4.80
2019-01-14T12:01:07.109Z,4.53
2019-01-14T12:06:08.805Z,4.47
2019-01-14T12:11:10.575Z,4.57
2019-01-14T12:16:12.325Z,5.60
2019-01-14T12:21:14.106Z,5.13
2019-01-14T12:26:17.772Z,4.80
2019-01-14T12:31:19.467Z,5.77
2019-01-14T12:36:21.216Z,5.27
2019-01-14T12:41:22.907Z,4.87
2019-01-14T12:46:24.635Z,5.63
2019-01-14T12:51:26.406Z,5.13
2019-01-14T12:56:28.493Z,4.30
2019-01-14T13:01:31.181Z,4.60
2019-01-14T13:06:32.962Z,4.10
2019-01-14T13:11:35.097Z,3.60
2019-01-14T13:16:36.822Z,5.47
2019-01-14T13:21:38.609Z,4.10
2019-01-14T13:26:40.305Z,4.50
2019-01-14T13:31:42.079Z,5.47
2019-01-14T13:36:43.895Z,4.70
2019-01-14T13:41:45.702Z,5.37
2019-01-14T13:46:47.454Z,4.77
2019-01-14T13:51:49.342Z,6.17
2019-01-14T13:56:51.129Z,6.37
2019-01-14T14:01:53.488Z,5.90
2019-01-14T14:06:55.528Z,5.93
2019-01-14T14:11:57.365Z,5.63
2019-01-14T14:16:59.158Z,6.47
2019-01-14T14:22:00.943Z,4.40
2019-01-14T14:27:03.053Z,7.10
2019-01-14T14:32:04.885Z,7.70
2019-01-14T14:37:06.655Z,6.33
2019-01-14T14:42:08.640Z,7.77
2019-01-14T14:47:10.420Z,5.33
2019-01-14T14:52:12.295Z,6.27
2019-01-14T14:57:14.017Z,5.27
2019-01-14T15:02:15.855Z,6.03
2019-01-14T15:07:17.949Z,6.30
2019-01-14T15:12:19.812Z,5.00
2019-01-14T15:17:32.108Z,4.17
2019-01-14T15:22:34.306Z,5.47
2019-01-14T15:27:35.996Z,5.57
2019-01-14T15:32:37.792Z,4.60
2019-01-14T15:37:39.543Z,5.70
2019-01-14T15:42:41.834Z,7.30
2019-01-14T15:47:43.570Z,5.67
2019-01-14T15:52:45.320Z,5.93
2019-01-14T15:57:47.048Z,6.27
2019-01-14T16:02:48.947Z,5.83
2019-01-14T16:07:50.720Z,5.07
2019-01-14T16:12:52.468Z,5.00
2019-01-14T16:17:54.171Z,6.10
2019-01-14T16:22:56.150Z,6.03
2019-01-14T16:27:57.856Z,6.90
2019-01-14T16:32:59.611Z,6.80
2019-01-14T16:38:01.380Z,8.20
2019-01-14T16:43:04.442Z,5.73
2019-01-14T16:48:06.226Z,5.43
2019-01-14T16:53:13.666Z,5.47
2019-01-14T16:58:15.557Z,5.60
2019-01-14T17:03:17.420Z,5.67
2019-01-14T17:08:19.196Z,4.73
2019-01-14T17:13:21.158Z,4.90
2019-01-14T17:18:22.893Z,5.30
2019-01-14T17:23:24.663Z,5.43
2019-01-14T17:28:26.368Z,5.33
2019-01-14T17:33:28.100Z,5.77
2019-01-14T17:38:30.234Z,5.80
2019-01-14T17:43:32.024Z,5.97
2019-01-14T17:48:34.730Z,6.17
2019-01-14T17:53:36.865Z,5.97
2019-01-14T17:58:38.559Z,5.43
2019-01-14T18:03:40.497Z,5.23
2019-01-14T18:08:43.456Z,7.17
2019-01-14T18:13:45.268Z,4.80
2019-01-14T18:18:47.236Z,6.30
2019-01-14T18:23:49.319Z,5.57
2019-01-14T18:28:52.934Z,6.37
2019-01-14T18:33:54.693Z,6.10
2019-01-14T18:38:56.464Z,5.47
2019-01-14T18:43:58.193Z,6.73
2019-01-14T18:48:59.978Z,8.33
2019-01-14T18:54:02.043Z,7.43
2019-01-14T18:59:03.815Z,9.30
2019-01-14T19:04:21.772Z,6.63
2019-01-14T19:09:24.167Z,6.53
2019-01-14T19:14:35.899Z,8.00
2019-01-14T19:19:38.319Z,7.73
2019-01-14T19:24:40.435Z,5.60
2019-01-14T19:29:42.303Z,5.87
2019-01-14T19:34:44.196Z,5.17
2019-01-14T19:39:45.879Z,8.27
2019-01-14T19:44:47.853Z,7.00
2019-01-14T19:49:49.996Z,7.33
2019-01-14T19:54:51.948Z,7.87
2019-01-14T19:59:53.917Z,9.50
2019-01-14T20:04:56.185Z,7.20
2019-01-14T20:09:57.898Z,6.67
2019-01-14T20:14:59.803Z,7.90
2019-01-14T20:20:01.725Z,8.40
2019-01-14T20:25:06.231Z,7.63
2019-01-14T20:30:12.088Z,8.53
2019-01-14T20:35:14.031Z,8.80
2019-01-14T20:40:16.210Z,9.73
2019-01-14T20:45:18.194Z,8.60
2019-01-14T20:50:20.696Z,10.23
2019-01-14T20:55:22.849Z,7.70
2019-01-14T21:00:24.714Z,8.03
2019-01-14T21:05:28.922Z,7.07
2019-01-14T21:10:30.908Z,7.70
2019-01-14T21:15:32.677Z,9.00
2019-01-14T21:20:34.530Z,7.27
2019-01-14T21:25:36.377Z,8.03
2019-01-14T21:30:38.388Z,8.57
2019-01-14T21:35:40.643Z,8.47
2019-01-14T21:40:42.317Z,6.83
2019-01-14T21:45:44.500Z,6.50
2019-01-14T21:50:46.279Z,8.30
2019-01-14T21:55:48.214Z,7.53
2019-01-14T22:00:49.927Z,6.90
2019-01-14T22:05:51.779Z,8.37
2019-01-14T22:10:54.024Z,10.40
2019-01-14T22:15:55.881Z,6.70
2019-01-14T22:20:57.706Z,7.93
2019-01-14T22:25:59.500Z,9.87
2019-01-14T22:31:01.523Z,8.67
2019-01-14T22:36:03.292Z,8.63
2019-01-14T22:41:05.045Z,6.97
2019-01-14T22:46:06.862Z,8.10
2019-01-14T22:51:08.544Z,8.17
2019-01-14T22:56:10.335Z,7.33
2019-01-14T23:01:15.731Z,5.23
2019-01-14T23:06:21.506Z,6.33
2019-01-14T23:11:23.680Z,5.87
2019-01-14T23:16:25.421Z,4.67
2019-01-14T23:21:27.136Z,5.43
2019-01-14T23:26:29.122Z,5.17
2019-01-14T23:31:30.896Z,3.90
2019-01-14T23:36:32.675Z,5.73
2019-01-14T23:41:34.447Z,4.93
2019-01-14T23:46:36.226Z,5.57
2019-01-14T23:51:38.000Z,5.30
2019-01-14T23:56:39.778Z,4.30
